Time;durP1;ratioP1;P1;durP2;ratioP2;P2;SDS_P1;SDS_P2;PMS_P1;PMS_P2;Temp;Humidity;BMP_temperature;BMP_pressure;BME280_temperature;BME280_humidity;BME280_pressure;Samples;Min_cycle;Max_cycle;Signal;HPM_P1;HPM_P2
2023/09/06 00:00:26;;;;;;;10.88;4.00;;;;;;;10.93;100.00;93427.69;2533382;23;20139;-84
2023/09/06 00:01:30;;;;;;;6.70;4.00;;;;;;;10.85;100.00;93420.97;2549515;23;20416;-84
2023/09/06 00:02:32;;;;;;;5.80;4.20;;;;;;;10.91;100.00;93416.63;2533255;23;20037;-84
2023/09/06 00:03:36;;;;;;;7.72;4.57;;;;;;;10.95;100.00;93422.69;2521877;23;20010;-85
2023/09/06 00:04:37;;;;;;;6.20;5.10;;;;;;;10.89;100.00;93415.53;2521609;23;20013;-85
2023/09/06 00:05:41;;;;;;;10.15;4.20;;;;;;;10.83;100.00;93415.25;2509599;23;20006;-85
2023/09/06 00:06:46;;;;;;;7.25;4.22;;;;;;;10.83;100.00;93416.00;2524261;23;20073;-86
2023/09/06 00:07:49;;;;;;;9.27;4.53;;;;;;;10.87;100.00;93418.63;2522337;23;20003;-85
2023/09/06 00:08:50;;;;;;;6.75;3.60;;;;;;;10.84;100.00;93409.50;2521335;23;20787;-83
2023/09/06 00:09:51;;;;;;;9.10;3.97;;;;;;;10.83;100.00;93417.91;2533314;23;20010;-84
2023/09/06 00:10:52;;;;;;;7.10;4.40;;;;;;;10.87;100.00;93417.88;2533455;23;20006;-84
2023/09/06 00:11:53;;;;;;;6.88;4.85;;;;;;;10.82;100.00;93414.50;2545513;23;20011;-85
2023/09/06 00:12:54;;;;;;;5.95;4.25;;;;;;;10.68;100.00;93416.69;2533283;23;20033;-87
2023/09/06 00:13:55;;;;;;;5.53;4.20;;;;;;;10.71;100.00;93419.28;2521414;23;20002;-86
2023/09/06 00:14:58;;;;;;;6.35;4.10;;;;;;;10.59;100.00;93417.19;2521537;23;20002;-86
2023/09/06 00:16:00;;;;;;;10.68;4.72;;;;;;;10.68;100.00;93422.03;2521492;23;20009;-86
2023/09/06 00:17:05;;;;;;;6.03;4.03;;;;;;;10.79;100.00;93419.91;2533235;23;20005;-85
2023/09/06 00:18:06;;;;;;;8.30;4.00;;;;;;;10.83;100.00;93423.28;2511102;23;20002;-86
2023/09/06 00:19:07;;;;;;;8.45;4.47;;;;;;;10.76;100.00;93416.16;2521326;23;20013;-86
2023/09/06 00:20:21;;;;;;;6.32;4.28;;;;;;;10.80;100.00;93421.44;2521331;23;20106;-86
2023/09/06 00:21:27;;;;;;;5.75;3.90;;;;;;;10.86;100.00;93427.06;2516078;23;20738;-85
2023/09/06 00:22:29;;;;;;;9.30;4.13;;;;;;;10.67;100.00;93423.16;2510858;23;20010;-85
2023/09/06 00:23:31;;;;;;;6.97;4.20;;;;;;;10.68;100.00;93419.34;2509566;23;20029;-85
2023/09/06 00:24:32;;;;;;;6.57;4.50;;;;;;;10.79;100.00;93423.31;2509931;23;20014;-86
2023/09/06 00:25:33;;;;;;;6.38;4.30;;;;;;;10.81;100.00;93425.59;2521141;23;20003;-84
2023/09/06 00:26:34;;;;;;;6.90;4.32;;;;;;;10.73;100.00;93424.22;2533251;23;20013;-87
2023/09/06 00:27:35;;;;;;;6.82;4.35;;;;;;;10.56;100.00;93421.44;2533397;23;20381;-85
2023/09/06 00:28:36;;;;;;;6.90;4.32;;;;;;;10.59;100.00;93423.31;2509558;23;20009;-85
2023/09/06 00:29:37;;;;;;;7.53;4.63;;;;;;;10.59;100.00;93425.22;2521530;23;20033;-86
2023/09/06 00:30:39;;;;;;;8.18;4.07;;;;;;;10.51;100.00;93427.25;2533031;23;20002;-87
2023/09/06 00:31:40;;;;;;;8.07;4.45;;;;;;;10.57;100.00;93422.19;2521431;23;20050;-86
2023/09/06 00:32:42;;;;;;;9.25;4.68;;;;;;;10.61;100.00;93424.81;2509682;23;20007;-85
2023/09/06 00:33:44;;;;;;;7.47;4.38;;;;;;;10.64;100.00;93424.00;2510095;23;20018;-86
2023/09/06 00:34:46;;;;;;;5.43;4.25;;;;;;;10.57;100.00;93424.84;2509436;23;20010;-85
2023/09/06 00:35:47;;;;;;;5.45;4.45;;;;;;;10.50;100.00;93420.41;2521427;23;20013;-84
2023/09/06 00:36:48;;;;;;;6.63;4.53;;;;;;;10.53;100.00;93421.50;2509374;23;20013;-87
2023/09/06 00:37:50;;;;;;;5.93;4.60;;;;;;;10.44;100.00;93424.69;2521059;23;20034;-85
2023/09/06 00:38:51;;;;;;;6.05;4.03;;;;;;;10.46;100.00;93425.06;2533524;23;20060;-87
2023/09/06 00:39:53;;;;;;;5.68;4.13;;;;;;;10.46;100.00;93426.97;2521116;23;20389;-84
2023/09/06 00:40:54;;;;;;;8.73;4.30;;;;;;;10.36;100.00;93423.31;2509552;23;20098;-83
2023/09/06 00:42:06;;;;;;;5.30;4.47;;;;;;;10.35;100.00;93419.09;2521276;23;20342;-88
2023/09/06 00:43:08;;;;;;;7.47;4.38;;;;;;;10.31;100.00;93421.84;2525490;23;20006;-86
2023/09/06 00:44:10;;;;;;;8.65;4.32;;;;;;;10.32;100.00;93426.03;2521382;23;20002;-84
2023/09/06 00:45:10;;;;;;;5.78;4.78;;;;;;;10.32;100.00;93425.28;2509529;23;20395;-85
2023/09/06 00:46:12;;;;;;;6.30;4.35;;;;;;;10.32;100.00;93422.63;2509299;23;20007;-84
2023/09/06 00:47:12;;;;;;;7.10;4.50;;;;;;;10.32;100.00;93420.69;2521377;23;20038;-87
2023/09/06 00:48:32;;;;;;;9.73;4.68;;;;;;;10.25;100.00;93428.06;2521253;23;20013;-85
2023/09/06 00:49:33;;;;;;;5.25;4.55;;;;;;;10.29;100.00;93423.41;2516778;23;20002;-85
2023/09/06 00:50:35;;;;;;;6.68;5.07;;;;;;;10.26;100.00;93424.22;2521164;23;20420;-87
2023/09/06 00:51:36;;;;;;;9.23;5.00;;;;;;;10.14;100.00;93427.41;2521529;23;20010;-85
2023/09/06 00:52:39;;;;;;;6.88;4.40;;;;;;;10.10;100.00;93432.84;2521258;23;20030;-85
2023/09/06 00:53:42;;;;;;;6.80;4.93;;;;;;;10.20;100.00;93431.91;2521808;23;20010;-85
2023/09/06 00:54:43;;;;;;;8.35;5.07;;;;;;;10.26;100.00;93427.63;2533214;23;20002;-85
2023/09/06 00:55:44;;;;;;;7.32;4.78;;;;;;;10.20;100.00;93423.91;2521155;23;20038;-85
2023/09/06 00:56:53;;;;;;;7.33;4.57;;;;;;;10.15;100.00;93420.94;2522535;23;20095;-86
2023/09/06 00:57:56;;;;;;;5.32;4.57;;;;;;;10.15;100.00;93424.38;2522868;23;20410;-87
2023/09/06 00:58:57;;;;;;;8.15;5.00;;;;;;;10.15;100.00;93428.94;2532973;23;20417;-84
2023/09/06 00:59:59;;;;;;;6.57;5.00;;;;;;;10.15;100.00;93426.28;2533228;23;20006;-86
2023/09/06 01:01:00;;;;;;;8.13;4.90;;;;;;;10.05;100.00;93426.03;2533184;23;20358;-86
2023/09/06 01:02:01;;;;;;;7.40;4.97;;;;;;;10.06;100.00;93414.19;2520935;23;20009;-84
2023/09/06 01:03:03;;;;;;;12.30;5.10;;;;;;;10.02;100.00;93423.41;2532895;23;20001;-85
2023/09/06 01:04:04;;;;;;;6.03;4.68;;;;;;;10.04;100.00;93416.50;2521221;23;20003;-85
2023/09/06 01:05:05;;;;;;;8.25;5.20;;;;;;;10.04;100.00;93427.19;2509492;23;20039;-83
2023/09/06 01:06:25;;;;;;;6.18;5.07;;;;;;;9.99;100.00;93427.63;2509089;23;20376;-86
2023/09/06 01:07:34;;;;;;;7.20;5.10;;;;;;;9.85;100.00;93422.50;2516994;23;20480;-84
2023/09/06 01:08:42;;;;;;;7.90;5.07;;;;;;;9.81;100.00;93425.22;2524364;23;20329;-85
2023/09/06 01:09:43;;;;;;;6.53;4.80;;;;;;;9.96;100.00;93423.09;2522553;23;20436;-85
2023/09/06 01:10:45;;;;;;;6.47;4.68;;;;;;;10.03;100.00;93422.25;2509401;23;20468;-84
2023/09/06 01:11:46;;;;;;;7.75;4.80;;;;;;;9.98;100.00;93426.13;2509725;23;20041;-86
2023/09/06 01:13:05;;;;;;;6.13;4.70;;;;;;;9.97;100.00;93418.53;2509577;23;20006;-85
2023/09/06 01:14:06;;;;;;;8.10;4.97;;;;;;;9.95;100.00;93418.91;2524610;23;20002;-83
2023/09/06 01:15:10;;;;;;;8.43;5.10;;;;;;;10.00;100.00;93423.81;2509459;23;20006;-85
2023/09/06 01:16:12;;;;;;;13.25;5.78;;;;;;;10.00;100.00;93420.38;2510107;23;20007;-85
2023/09/06 01:17:16;;;;;;;5.40;4.80;;;;;;;9.94;100.00;93422.00;2509524;23;20002;-83
2023/09/06 01:18:18;;;;;;;7.32;4.63;;;;;;;9.87;100.00;93416.75;2510785;23;20026;-86
2023/09/06 01:19:19;;;;;;;6.80;4.80;;;;;;;9.87;100.00;93412.16;2521630;23;20306;-84
2023/09/06 01:20:40;;;;;;;8.30;5.05;;;;;;;9.88;100.00;93420.94;2521023;23;20006;-84
2023/09/06 01:22:06;;;;;;;7.45;4.97;;;;;;;9.86;100.00;93418.66;2517265;23;20006;-83
2023/09/06 01:23:37;;;;;;;7.85;4.72;;;;;;;9.86;100.00;93420.59;2531377;23;20424;-83
2023/09/06 01:24:38;;;;;;;6.57;4.93;;;;;;;9.80;100.00;93425.63;2526830;23;20010;-83
2023/09/06 01:25:39;;;;;;;7.28;5.13;;;;;;;9.82;100.00;93424.06;2509335;23;20078;-85
2023/09/06 01:26:41;;;;;;;8.60;4.97;;;;;;;9.77;100.00;93426.44;2521074;23;20145;-84
2023/09/06 01:27:43;;;;;;;6.97;4.82;;;;;;;9.79;100.00;93429.47;2521130;23;20003;-85
2023/09/06 01:28:44;;;;;;;7.15;4.85;;;;;;;9.80;100.00;93428.31;2533600;23;20037;-86
2023/09/06 01:29:46;;;;;;;8.38;5.13;;;;;;;9.68;100.00;93432.25;2532960;23;20358;-84
2023/09/06 01:30:47;;;;;;;8.13;5.13;;;;;;;9.57;100.00;93423.66;2521224;23;20033;-85
2023/09/06 01:31:48;;;;;;;8.23;5.20;;;;;;;9.71;100.00;93428.06;2521317;23;20009;-86
2023/09/06 01:32:49;;;;;;;10.50;6.10;;;;;;;9.69;100.00;93422.34;2521144;23;20065;-86
2023/09/06 01:33:51;;;;;;;10.13;5.43;;;;;;;9.66;100.00;93428.47;2509274;23;20069;-86
2023/09/06 01:34:52;;;;;;;9.90;5.72;;;;;;;9.58;100.00;93425.16;2521350;23;20006;-85
2023/09/06 01:35:53;;;;;;;7.35;5.13;;;;;;;9.58;100.00;93425.91;2520803;23;20009;-87
2023/09/06 01:36:54;;;;;;;9.48;5.20;;;;;;;9.64;100.00;93423.53;2521189;23;20112;-84
2023/09/06 01:37:56;;;;;;;7.07;5.30;;;;;;;9.71;100.00;93426.13;2520985;23;20026;-85
2023/09/06 01:38:57;;;;;;;9.45;5.18;;;;;;;9.66;100.00;93421.25;2533447;23;20409;-84
2023/09/06 01:39:58;;;;;;;6.65;5.28;;;;;;;9.62;100.00;93415.19;2533065;23;20058;-84
2023/09/06 01:41:00;;;;;;;6.28;4.45;;;;;;;9.50;100.00;93416.50;2520656;23;20029;-86
2023/09/06 01:42:05;;;;;;;8.85;5.22;;;;;;;9.51;100.00;93426.00;2535202;23;20013;-84
2023/09/06 01:43:08;;;;;;;9.15;5.03;;;;;;;9.47;100.00;93421.88;2533054;23;20088;-84
2023/09/06 01:44:09;;;;;;;6.90;5.10;;;;;;;9.50;100.00;93424.50;2521956;23;20010;-83
2023/09/06 01:45:10;;;;;;;9.75;5.47;;;;;;;9.44;100.00;93426.09;2533087;23;20457;-84
2023/09/06 01:46:11;;;;;;;7.78;5.68;;;;;;;9.46;100.00;93426.44;2520543;23;20002;-85
2023/09/06 01:47:12;;;;;;;10.00;5.78;;;;;;;9.52;100.00;93424.84;2520811;23;20010;-86
2023/09/06 01:48:13;;;;;;;9.55;5.45;;;;;;;9.63;100.00;93430.06;2532811;23;20045;-85
2023/09/06 01:49:14;;;;;;;5.70;5.07;;;;;;;9.64;100.00;93425.47;2520678;23;20006;-83
2023/09/06 01:50:19;;;;;;;8.10;5.20;;;;;;;9.62;100.00;93425.88;2520862;23;20006;-85
2023/09/06 01:51:22;;;;;;;7.32;4.80;;;;;;;9.58;100.00;93425.91;2532939;23;20134;-84
2023/09/06 01:52:23;;;;;;;6.78;4.90;;;;;;;9.53;100.00;93422.94;2510172;23;20493;-86
2023/09/06 01:53:24;;;;;;;9.55;5.00;;;;;;;9.47;100.00;93419.94;2508991;23;20007;-83
2023/09/06 01:54:27;;;;;;;8.27;5.00;;;;;;;9.47;100.00;93424.53;2509995;23;20078;-85
2023/09/06 01:55:28;;;;;;;7.35;5.25;;;;;;;9.47;100.00;93419.19;2520700;23;20422;-83
2023/09/06 01:56:29;;;;;;;9.43;5.45;;;;;;;9.42;100.00;93420.41;2508961;23;20035;-84
2023/09/06 01:57:31;;;;;;;6.45;5.03;;;;;;;9.43;100.00;93419.22;2509450;23;20011;-84
2023/09/06 01:58:32;;;;;;;7.38;4.53;;;;;;;9.43;100.00;93419.22;2533208;23;20002;-86
2023/09/06 01:59:33;;;;;;;6.93;5.30;;;;;;;9.34;100.00;93416.31;2545104;23;20013;-85
2023/09/06 02:00:36;;;;;;;8.60;5.13;;;;;;;9.41;100.00;93423.47;2520849;23;20337;-84
2023/09/06 02:01:38;;;;;;;11.40;5.82;;;;;;;9.42;100.00;93414.31;2509633;23;20518;-83
2023/09/06 02:02:39;;;;;;;7.60;5.40;;;;;;;9.32;100.00;93414.03;2533307;23;20279;-85
2023/09/06 02:03:40;;;;;;;8.80;5.70;;;;;;;9.32;100.00;93422.03;2533029;23;20135;-85
2023/09/06 02:04:41;;;;;;;7.68;4.97;;;;;;;9.30;100.00;93416.34;2509208;23;20007;-86
2023/09/06 02:05:43;;;;;;;7.95;5.40;;;;;;;9.44;100.00;93415.44;2520896;23;20002;-84
2023/09/06 02:06:44;;;;;;;6.35;5.05;;;;;;;9.37;100.00;93420.84;2544953;23;20401;-86
2023/09/06 02:07:46;;;;;;;8.70;5.00;;;;;;;9.30;100.00;93421.66;2520933;23;20002;-86
2023/09/06 02:08:47;;;;;;;9.35;5.30;;;;;;;9.34;100.00;93421.63;2509268;23;20054;-85
2023/09/06 02:09:48;;;;;;;7.97;4.60;;;;;;;9.31;100.00;93414.44;2520957;23;20073;-83
2023/09/06 02:10:49;;;;;;;7.15;5.10;;;;;;;9.26;100.00;93410.31;2521033;23;20374;-83
2023/09/06 02:11:51;;;;;;;8.05;4.85;;;;;;;9.30;100.00;93415.59;2520921;23;20006;-85
2023/09/06 02:12:52;;;;;;;6.20;4.80;;;;;;;9.36;100.00;93408.66;2521684;23;20010;-84
2023/09/06 02:13:53;;;;;;;9.90;5.20;;;;;;;9.17;100.00;93412.69;2520822;23;20044;-83
2023/09/06 02:14:56;;;;;;;9.85;5.10;;;;;;;9.21;100.00;93409.97;2509004;23;20010;-84
2023/09/06 02:15:57;;;;;;;11.07;5.28;;;;;;;9.23;100.00;93403.09;2521639;23;20009;-83
2023/09/06 02:17:00;;;;;;;6.00;4.80;;;;;;;9.26;100.00;93406.88;2520999;23;20089;-83
2023/09/06 02:18:01;;;;;;;8.40;5.60;;;;;;;9.13;100.00;93412.00;2533519;23;20002;-85
2023/09/06 02:19:03;;;;;;;8.82;5.50;;;;;;;9.14;100.00;93410.84;2520933;23;20059;-85
2023/09/06 02:20:17;;;;;;;8.93;4.80;;;;;;;9.19;100.00;93409.63;2509298;23;20050;-86
2023/09/06 02:21:17;;;;;;;9.13;5.25;;;;;;;9.10;100.00;93404.78;2514328;23;20006;-84
2023/09/06 02:22:18;;;;;;;12.32;4.97;;;;;;;9.14;100.00;93404.75;2508890;23;20026;-84
2023/09/06 02:23:19;;;;;;;8.88;5.63;;;;;;;9.17;100.00;93401.25;2509289;23;20011;-85
2023/09/06 02:24:20;;;;;;;10.23;5.35;;;;;;;9.12;100.00;93410.47;2509193;23;20456;-84
2023/09/06 02:25:24;;;;;;;7.70;5.00;;;;;;;9.13;100.00;93412.00;2509046;23;20010;-85
2023/09/06 02:26:37;;;;;;;7.38;5.20;;;;;;;9.20;100.00;93405.81;2511265;23;20007;-85
2023/09/06 02:27:40;;;;;;;6.28;5.03;;;;;;;9.07;100.00;93413.56;2513126;23;20007;-83
2023/09/06 02:28:41;;;;;;;8.40;5.22;;;;;;;9.01;100.00;93405.25;2521217;23;20006;-84
2023/09/06 02:29:42;;;;;;;7.93;5.30;;;;;;;9.12;100.00;93399.78;2520811;23;20445;-84
2023/09/06 02:30:43;;;;;;;9.95;5.50;;;;;;;9.13;100.00;93401.31;2509110;23;20006;-83
2023/09/06 02:31:45;;;;;;;6.57;5.03;;;;;;;9.10;100.00;93402.13;2508968;23;20003;-85
2023/09/06 02:32:47;;;;;;;8.23;5.05;;;;;;;9.12;100.00;93402.47;2521040;23;20003;-84
2023/09/06 02:33:48;;;;;;;7.88;5.00;;;;;;;9.05;100.00;93403.31;2521057;23;20010;-83
2023/09/06 02:34:49;;;;;;;7.05;5.15;;;;;;;9.04;100.00;93409.03;2520697;23;20034;-82
2023/09/06 02:35:50;;;;;;;7.40;5.45;;;;;;;8.95;100.00;93401.50;2520535;23;20422;-82
2023/09/06 02:36:51;;;;;;;6.63;5.00;;;;;;;9.01;100.00;93405.25;2520811;23;20011;-84
2023/09/06 02:37:52;;;;;;;8.00;5.10;;;;;;;8.85;100.00;93402.38;2520658;23;20450;-84
2023/09/06 02:38:53;;;;;;;7.70;5.30;;;;;;;8.93;100.00;93400.41;2508897;23;20434;-85
2023/09/06 02:39:54;;;;;;;7.82;5.60;;;;;;;8.93;100.00;93397.75;2520878;23;20017;-83
2023/09/06 02:40:55;;;;;;;7.03;5.45;;;;;;;8.95;100.00;93395.41;2520754;23;20433;-84
2023/09/06 02:41:59;;;;;;;7.72;5.05;;;;;;;8.86;100.00;93397.81;2509236;23;20003;-83
2023/09/06 02:43:00;;;;;;;7.60;4.90;;;;;;;8.82;100.00;93405.84;2521612;23;20009;-83
2023/09/06 02:44:01;;;;;;;11.65;5.97;;;;;;;8.89;100.00;93403.09;2520765;23;20103;-85
2023/09/06 02:45:05;;;;;;;5.72;4.88;;;;;;;8.89;100.00;93403.09;2508970;23;20462;-84
2023/09/06 02:46:06;;;;;;;6.93;5.00;;;;;;;8.84;100.00;93406.22;2509641;23;20006;-85
2023/09/06 02:47:11;;;;;;;7.43;5.18;;;;;;;8.93;100.00;93401.16;2508757;23;20003;-85
2023/09/06 02:48:16;;;;;;;9.73;5.10;;;;;;;8.97;100.00;93399.22;2510550;23;20022;-85
2023/09/06 02:49:17;;;;;;;7.70;5.07;;;;;;;8.97;100.00;93404.53;2533508;23;20009;-83
2023/09/06 02:50:23;;;;;;;7.60;5.30;;;;;;;8.92;100.00;93401.56;2532686;23;19998;-83
2023/09/06 02:51:29;;;;;;;10.00;4.82;;;;;;;8.85;100.00;93401.63;2510704;23;20007;-84
2023/09/06 02:52:30;;;;;;;6.57;4.63;;;;;;;8.76;100.00;93407.44;2510831;23;20003;-83
2023/09/06 02:53:32;;;;;;;6.65;4.97;;;;;;;8.84;100.00;93403.53;2521055;23;20426;-83
2023/09/06 02:54:33;;;;;;;5.93;5.00;;;;;;;8.85;100.00;93399.72;2509622;23;20015;-85
2023/09/06 02:55:35;;;;;;;6.15;5.13;;;;;;;8.87;100.00;93400.09;2508956;23;20007;-83
2023/09/06 02:56:38;;;;;;;10.23;4.65;;;;;;;8.84;100.00;93400.88;2533004;23;20010;-83
2023/09/06 02:57:41;;;;;;;7.30;4.82;;;;;;;8.86;100.00;93397.81;2521734;23;20006;-85
2023/09/06 02:58:42;;;;;;;7.47;4.88;;;;;;;8.81;100.00;93402.41;2533298;23;20013;-83
2023/09/06 02:59:43;;;;;;;6.32;5.07;;;;;;;8.80;100.00;93403.56;2520710;23;20010;-84
2023/09/06 03:00:48;;;;;;;6.28;4.80;;;;;;;8.81;100.00;93401.66;2509078;23;20477;-84
2023/09/06 03:01:59;;;;;;;7.07;4.88;;;;;;;8.74;100.00;93407.84;2525082;23;19998;-82
2023/09/06 03:03:05;;;;;;;10.10;5.38;;;;;;;8.75;100.00;93404.00;2522653;23;20018;-83
2023/09/06 03:04:06;;;;;;;6.75;5.05;;;;;;;8.84;100.00;93400.88;2510839;23;20315;-84
2023/09/06 03:05:09;;;;;;;7.03;5.32;;;;;;;8.79;100.00;93410.06;2508808;23;20610;-83
2023/09/06 03:06:17;;;;;;;8.30;5.05;;;;;;;8.77;100.00;93408.94;2509290;23;20574;-83
2023/09/06 03:07:19;;;;;;;7.28;4.68;;;;;;;8.71;100.00;93411.28;2523892;23;20009;-83
2023/09/06 03:08:20;;;;;;;7.22;5.22;;;;;;;8.60;100.00;93407.19;2532644;23;20388;-84
2023/09/06 03:09:28;;;;;;;7.63;5.13;;;;;;;8.62;100.00;93402.25;2533019;23;20002;-84
2023/09/06 03:10:33;;;;;;;8.95;5.30;;;;;;;8.53;100.00;93406.13;2522522;23;20006;-82
2023/09/06 03:11:34;;;;;;;9.07;5.03;;;;;;;8.62;100.00;93400.34;2522312;23;20640;-84
2023/09/06 03:12:35;;;;;;;6.78;5.07;;;;;;;8.61;100.00;93406.81;2520947;23;20002;-84
2023/09/06 03:13:37;;;;;;;5.75;4.78;;;;;;;8.73;100.00;93405.56;2521592;23;20344;-84
2023/09/06 03:14:43;;;;;;;7.90;5.10;;;;;;;8.63;100.00;93409.09;2520673;23;19999;-83
2023/09/06 03:15:44;;;;;;;10.25;5.47;;;;;;;8.67;100.00;93405.22;2511135;23;20007;-83
2023/09/06 03:16:53;;;;;;;8.35;5.65;;;;;;;8.57;100.00;93409.50;2508665;23;20172;-84
2023/09/06 03:17:58;;;;;;;8.82;4.85;;;;;;;8.58;100.00;93405.69;2523913;23;20149;-84
2023/09/06 03:18:59;;;;;;;10.32;5.13;;;;;;;8.53;100.00;93408.78;2521400;23;20620;-85
2023/09/06 03:20:00;;;;;;;6.38;5.05;;;;;;;8.53;100.00;93402.72;2520811;23;20385;-84
2023/09/06 03:21:04;;;;;;;13.48;5.53;;;;;;;8.58;100.00;93410.28;2532582;23;20037;-85
2023/09/06 03:22:06;;;;;;;6.97;4.78;;;;;;;8.56;100.00;93409.91;2521658;23;20017;-83
2023/09/06 03:23:17;;;;;;;7.47;5.20;;;;;;;8.61;100.00;93403.41;2521238;23;20113;-82
2023/09/06 03:24:19;;;;;;;6.13;4.97;;;;;;;8.64;100.00;93406.00;2524962;23;20007;-85
2023/09/06 03:25:20;;;;;;;8.18;5.43;;;;;;;8.57;100.00;93406.09;2520613;23;20006;-84
2023/09/06 03:26:22;;;;;;;9.27;5.20;;;;;;;8.49;100.00;93407.31;2508946;23;20007;-84
2023/09/06 03:27:25;;;;;;;7.18;4.93;;;;;;;8.43;100.00;93412.31;2522634;23;20370;-82
2023/09/06 03:28:26;;;;;;;9.60;5.13;;;;;;;8.53;100.00;93408.78;2533637;23;20001;-82
2023/09/06 03:29:27;;;;;;;7.22;5.22;;;;;;;8.39;100.00;93406.25;2509844;23;20010;-83
2023/09/06 03:30:33;;;;;;;11.50;5.07;;;;;;;8.47;100.00;93406.94;2521345;23;20426;-84
2023/09/06 03:31:42;;;;;;;7.53;5.47;;;;;;;8.50;100.00;93403.50;2522691;23;20013;-84
2023/09/06 03:32:44;;;;;;;8.38;5.25;;;;;;;8.49;100.00;93409.97;2523467;23;20017;-83
2023/09/06 03:33:45;;;;;;;7.40;4.90;;;;;;;8.44;100.00;93407.75;2509677;23;20415;-84
2023/09/06 03:34:46;;;;;;;7.50;5.53;;;;;;;8.36;100.00;93406.25;2509618;23;20007;-83
2023/09/06 03:35:48;;;;;;;9.38;5.60;;;;;;;8.37;100.00;93407.78;2533529;23;20033;-82
2023/09/06 03:36:55;;;;;;;8.85;5.65;;;;;;;8.29;100.00;93409.72;2533428;23;19998;-84
2023/09/06 03:37:56;;;;;;;7.05;5.10;;;;;;;8.28;100.00;93408.22;2522405;23;20029;-83
2023/09/06 03:38:57;;;;;;;10.20;5.80;;;;;;;8.22;100.00;93405.22;2509467;23;20010;-83
2023/09/06 03:39:58;;;;;;;9.07;5.68;;;;;;;8.27;100.00;93407.47;2509545;23;20031;-83
2023/09/06 03:41:02;;;;;;;5.97;4.88;;;;;;;8.29;100.00;93404.41;2521844;23;20096;-85
2023/09/06 03:42:08;;;;;;;7.57;5.25;;;;;;;8.35;100.00;93415.41;2533492;23;20078;-85
2023/09/06 03:43:15;;;;;;;7.65;5.35;;;;;;;8.29;100.00;93407.06;2533651;23;20439;-84
2023/09/06 03:44:16;;;;;;;9.23;5.45;;;;;;;8.21;100.00;93409.03;2511986;23;20003;-82
2023/09/06 03:45:21;;;;;;;7.07;5.07;;;;;;;8.26;100.00;93419.28;2509721;23;20418;-85
2023/09/06 03:46:22;;;;;;;7.90;4.88;;;;;;;8.26;100.00;93419.28;2522854;23;20002;-82
2023/09/06 03:47:23;;;;;;;6.80;4.95;;;;;;;8.23;100.00;93411.31;2533594;23;20002;-85
2023/09/06 03:48:27;;;;;;;7.43;5.65;;;;;;;8.23;100.00;93417.38;2533249;23;20064;-83
2023/09/06 03:49:28;;;;;;;8.85;5.22;;;;;;;8.22;100.00;93421.22;2522578;23;20029;-83
2023/09/06 03:50:29;;;;;;;8.43;5.45;;;;;;;8.21;100.00;93419.69;2533264;23;20006;-84
2023/09/06 03:51:36;;;;;;;7.32;5.15;;;;;;;8.24;100.00;93418.91;2522041;23;20089;-84
2023/09/06 03:52:38;;;;;;;7.93;5.35;;;;;;;8.19;100.00;93421.22;2523190;23;20006;-84
2023/09/06 03:53:41;;;;;;;8.80;5.15;;;;;;;8.16;100.00;93419.34;2533256;23;20033;-84
2023/09/06 03:54:42;;;;;;;7.90;4.82;;;;;;;8.20;100.00;93422.75;2522333;23;20003;-84
2023/09/06 03:55:46;;;;;;;8.80;5.30;;;;;;;8.24;100.00;93426.13;2521112;23;20437;-83
2023/09/06 03:56:50;;;;;;;8.85;5.20;;;;;;;8.25;100.00;93424.97;2510243;23;20542;-83
2023/09/06 03:57:52;;;;;;;7.90;5.18;;;;;;;8.22;100.00;93421.22;2510757;23;20062;-85
2023/09/06 03:58:54;;;;;;;10.77;5.38;;;;;;;8.33;100.00;93405.13;2509614;23;20013;-84
2023/09/06 03:59:55;;;;;;;8.27;5.60;;;;;;;8.38;100.00;93419.97;2509750;23;20058;-84
2023/09/06 04:00:56;;;;;;;7.32;5.13;;;;;;;8.31;100.00;93416.19;2521229;23;20057;-84
2023/09/06 04:01:57;;;;;;;7.93;4.80;;;;;;;8.21;100.00;93416.25;2521406;23;20017;-84
2023/09/06 04:02:58;;;;;;;7.95;5.47;;;;;;;8.28;100.00;93416.97;2509847;23;20006;-83
2023/09/06 04:04:00;;;;;;;9.60;5.60;;;;;;;8.44;100.00;93416.50;2533592;23;20059;-84
2023/09/06 04:05:02;;;;;;;8.70;5.60;;;;;;;8.53;100.00;93414.13;2545483;23;20008;-86
2023/09/06 04:06:03;;;;;;;7.13;4.90;;;;;;;8.51;100.00;93416.41;2521084;23;20013;-86
2023/09/06 04:07:06;;;;;;;10.60;5.72;;;;;;;8.60;100.00;93407.97;2509477;23;20574;-86
2023/09/06 04:08:07;;;;;;;8.50;5.30;;;;;;;8.56;100.00;93412.59;2510097;23;20469;-87
2023/09/06 04:09:13;;;;;;;8.07;5.72;;;;;;;8.53;100.00;93421.38;2521538;23;20013;-85
2023/09/06 04:10:16;;;;;;;9.10;5.35;;;;;;;8.49;100.00;93417.97;2522367;23;20013;-84
2023/09/06 04:11:17;;;;;;;9.00;5.40;;;;;;;8.53;100.00;93422.13;2522310;23;20012;-85
2023/09/06 04:12:18;;;;;;;7.47;5.45;;;;;;;8.58;100.00;93416.34;2521386;23;20029;-85
2023/09/06 04:13:19;;;;;;;10.27;5.53;;;;;;;8.50;100.00;93422.13;2509705;23;20011;-86
2023/09/06 04:14:23;;;;;;;10.50;5.32;;;;;;;8.51;100.00;93413.00;2509625;23;20003;-85
2023/09/06 04:15:24;;;;;;;9.57;5.40;;;;;;;8.44;100.00;93416.50;2510743;23;20644;-84
2023/09/06 04:16:25;;;;;;;11.73;6.40;;;;;;;8.46;100.00;93419.50;2509111;23;20015;-84
2023/09/06 04:17:27;;;;;;;10.40;5.32;;;;;;;8.38;100.00;93415.38;2521467;23;20033;-85
2023/09/06 04:18:28;;;;;;;9.30;5.75;;;;;;;8.35;100.00;93418.06;2521745;23;20016;-85
2023/09/06 04:19:29;;;;;;;7.72;5.25;;;;;;;8.33;100.00;93421.88;2509543;23;20006;-84
2023/09/06 04:20:36;;;;;;;8.60;5.43;;;;;;;8.34;100.00;93422.66;2509740;23;20029;-84
2023/09/06 04:21:37;;;;;;;7.32;5.35;;;;;;;8.26;100.00;93423.84;2522194;23;20338;-84
2023/09/06 04:22:38;;;;;;;12.02;5.63;;;;;;;8.19;100.00;93426.56;2509780;23;20006;-85
2023/09/06 04:23:40;;;;;;;11.13;5.72;;;;;;;8.22;100.00;93423.88;2509607;23;20089;-82
2023/09/06 04:24:41;;;;;;;7.97;5.53;;;;;;;8.22;100.00;93417.78;2509628;23;20054;-84
2023/09/06 04:25:44;;;;;;;7.18;5.57;;;;;;;8.22;100.00;93426.53;2521305;23;20002;-85
2023/09/06 04:26:45;;;;;;;10.35;6.10;;;;;;;8.25;100.00;93424.97;2521766;23;20399;-83
2023/09/06 04:27:46;;;;;;;10.07;4.95;;;;;;;8.14;100.00;93424.31;2509477;23;20031;-83
2023/09/06 04:28:49;;;;;;;9.98;5.60;;;;;;;8.07;100.00;93428.53;2521199;23;20095;-83
2023/09/06 04:29:52;;;;;;;9.40;5.63;;;;;;;8.03;100.00;93425.16;2521849;23;20429;-83
2023/09/06 04:30:53;;;;;;;7.55;5.13;;;;;;;8.04;100.00;93417.94;2510038;23;20409;-83
2023/09/06 04:31:54;;;;;;;6.93;5.05;;;;;;;8.05;100.00;93414.88;2521291;23;20014;-84
2023/09/06 04:32:58;;;;;;;8.02;5.55;;;;;;;8.13;100.00;93417.47;2533219;23;20002;-84
2023/09/06 04:34:01;;;;;;;10.93;5.70;;;;;;;8.14;100.00;93419.00;2534126;23;20002;-84
2023/09/06 04:35:02;;;;;;;10.70;6.10;;;;;;;8.02;100.00;93423.63;2521768;23;20010;-85
2023/09/06 04:36:04;;;;;;;9.50;5.28;;;;;;;8.10;100.00;93431.56;2533105;23;20009;-85
2023/09/06 04:37:05;;;;;;;10.23;5.68;;;;;;;8.02;100.00;93430.84;2533423;23;20006;-86
2023/09/06 04:38:09;;;;;;;9.00;5.47;;;;;;;7.96;100.00;93424.44;2520988;23;20030;-85
2023/09/06 04:39:10;;;;;;;10.77;6.00;;;;;;;8.01;100.00;93424.78;2510870;23;20007;-84
2023/09/06 04:40:12;;;;;;;13.60;5.90;;;;;;;8.00;100.00;93431.25;2521743;23;20130;-85
2023/09/06 04:41:14;;;;;;;7.72;5.43;;;;;;;8.00;100.00;93425.19;2521389;23;20094;-86
2023/09/06 04:42:15;;;;;;;11.60;6.82;;;;;;;7.93;100.00;93433.97;2509943;23;20048;-85
2023/09/06 04:43:17;;;;;;;9.18;5.15;;;;;;;8.00;100.00;93435.81;2509640;23;20056;-83
2023/09/06 04:44:18;;;;;;;10.80;5.43;;;;;;;8.01;100.00;93432.75;2509249;23;20010;-83
2023/09/06 04:45:19;;;;;;;8.05;5.60;;;;;;;8.02;100.00;93433.53;2533081;23;20336;-83
2023/09/06 04:46:20;;;;;;;12.95;6.07;;;;;;;7.89;100.00;93435.88;2532833;23;20033;-86
2023/09/06 04:47:21;;;;;;;10.95;5.38;;;;;;;7.95;100.00;93433.59;2509438;23;20348;-82
2023/09/06 04:48:23;;;;;;;10.10;5.85;;;;;;;8.01;100.00;93442.66;2509281;23;20007;-84
2023/09/06 04:49:24;;;;;;;13.20;6.30;;;;;;;8.02;100.00;93434.28;2521675;23;20018;-86
2023/09/06 04:50:25;;;;;;;10.00;5.90;;;;;;;7.96;100.00;93435.84;2521520;23;20019;-84
2023/09/06 04:51:27;;;;;;;9.38;5.43;;;;;;;7.91;100.00;93441.59;2509350;23;20117;-85
2023/09/06 04:52:28;;;;;;;11.43;6.85;;;;;;;8.04;100.00;93436.56;2521845;23;20008;-83
2023/09/06 04:53:30;;;;;;;9.77;5.65;;;;;;;8.00;100.00;93436.59;2521246;23;20013;-84